Aviation Digital Data Service (ADDS)

Output produced by METARs form (1748 UTC 28 November 2014)
found at http://www.aviationweather.gov/adds/metars/
 
KDEC 281733Z 2818/2918 17014G20KT P6SM BKN250 
     FM290000 18012KT P6SM BKN150 
     FM290600 18012KT P6SM BKN250 WS020/23040KT 
     FM291300 20014KT P6SM SCT250